sensor_id;sensor_type;location;lat;lon;timestamp;pressure;altitude;pressure_sealevel;temperature;humidity
63088;BME280;49173;43.164;27.786;2023-04-22T00:01:41;100215.50;;;10.86;78.25
63088;BME280;49173;43.164;27.786;2023-04-22T00:04:06;100214.66;;;10.86;78.12
63088;BME280;49173;43.164;27.786;2023-04-22T00:06:34;100221.91;;;10.84;77.40
63088;BME280;49173;43.164;27.786;2023-04-22T00:08:59;100221.81;;;10.85;76.72
63088;BME280;49173;43.164;27.786;2023-04-22T00:11:25;100220.00;;;10.86;76.37
63088;BME280;49173;43.164;27.786;2023-04-22T00:13:51;100228.06;;;10.86;75.77
63088;BME280;49173;43.164;27.786;2023-04-22T00:16:17;100239.84;;;10.83;75.83
63088;BME280;49173;43.164;27.786;2023-04-22T00:18:44;100224.94;;;10.78;75.97
63088;BME280;49173;43.164;27.786;2023-04-22T00:21:10;100230.59;;;10.73;76.67
63088;BME280;49173;43.164;27.786;2023-04-22T00:23:36;100232.56;;;10.69;76.59
63088;BME280;49173;43.164;27.786;2023-04-22T00:26:02;100229.13;;;10.67;76.72
63088;BME280;49173;43.164;27.786;2023-04-22T00:28:28;100236.22;;;10.68;76.79
63088;BME280;49173;43.164;27.786;2023-04-22T00:30:54;100234.31;;;10.70;77.24
63088;BME280;49173;43.164;27.786;2023-04-22T00:33:19;100229.97;;;10.68;77.05
63088;BME280;49173;43.164;27.786;2023-04-22T00:35:45;100228.25;;;10.67;77.38
63088;BME280;49173;43.164;27.786;2023-04-22T00:38:11;100229.31;;;10.64;77.04
63088;BME280;49173;43.164;27.786;2023-04-22T00:40:37;100225.16;;;10.59;76.73
63088;BME280;49173;43.164;27.786;2023-04-22T00:43:03;100219.09;;;10.55;76.73
63088;BME280;49173;43.164;27.786;2023-04-22T00:45:30;100208.44;;;10.54;76.92
63088;BME280;49173;43.164;27.786;2023-04-22T00:47:56;100209.75;;;10.47;77.10
63088;BME280;49173;43.164;27.786;2023-04-22T00:50:22;100207.84;;;10.49;76.89
63088;BME280;49173;43.164;27.786;2023-04-22T00:52:48;100214.06;;;10.49;76.28
63088;BME280;49173;43.164;27.786;2023-04-22T00:55:14;100214.94;;;10.50;76.39
63088;BME280;49173;43.164;27.786;2023-04-22T00:57:40;100212.34;;;10.48;76.20
63088;BME280;49173;43.164;27.786;2023-04-22T01:00:06;100216.16;;;10.44;76.50
63088;BME280;49173;43.164;27.786;2023-04-22T01:02:36;100210.94;;;10.41;76.53
63088;BME280;49173;43.164;27.786;2023-04-22T01:05:03;100218.47;;;10.34;76.53
63088;BME280;49173;43.164;27.786;2023-04-22T01:07:30;100221.50;;;10.28;76.55
63088;BME280;49173;43.164;27.786;2023-04-22T01:09:56;100222.22;;;10.32;76.68
63088;BME280;49173;43.164;27.786;2023-04-22T01:12:22;100213.22;;;10.33;76.86
63088;BME280;49173;43.164;27.786;2023-04-22T01:14:48;100217.00;;;10.29;76.63
63088;BME280;49173;43.164;27.786;2023-04-22T01:17:15;100212.59;;;10.28;76.57
63088;BME280;49173;43.164;27.786;2023-04-22T01:19:41;100215.22;;;10.29;76.56
63088;BME280;49173;43.164;27.786;2023-04-22T01:22:08;100202.81;;;10.27;76.51
63088;BME280;49173;43.164;27.786;2023-04-22T01:24:36;100216.41;;;10.24;76.59
63088;BME280;49173;43.164;27.786;2023-04-22T01:27:02;100200.38;;;10.22;76.55
63088;BME280;49173;43.164;27.786;2023-04-22T01:29:28;100208.78;;;10.16;76.89
63088;BME280;49173;43.164;27.786;2023-04-22T01:31:54;100200.97;;;10.11;76.78
63088;BME280;49173;43.164;27.786;2023-04-22T01:34:21;100199.25;;;10.10;76.78
63088;BME280;49173;43.164;27.786;2023-04-22T01:36:47;100202.06;;;10.07;76.97
63088;BME280;49173;43.164;27.786;2023-04-22T01:39:13;100201.06;;;10.10;76.57
63088;BME280;49173;43.164;27.786;2023-04-22T01:41:40;100196.91;;;10.04;76.71
63088;BME280;49173;43.164;27.786;2023-04-22T01:44:06;100193.34;;;10.04;76.48
63088;BME280;49173;43.164;27.786;2023-04-22T01:46:32;100187.22;;;10.02;76.19
63088;BME280;49173;43.164;27.786;2023-04-22T01:48:58;100191.53;;;10.04;76.18
63088;BME280;49173;43.164;27.786;2023-04-22T01:51:24;100188.09;;;10.02;76.05
63088;BME280;49173;43.164;27.786;2023-04-22T01:53:50;100196.91;;;10.04;75.91
63088;BME280;49173;43.164;27.786;2023-04-22T01:56:16;100192.50;;;10.03;75.93
63088;BME280;49173;43.164;27.786;2023-04-22T01:58:42;100199.75;;;10.01;75.71
63088;BME280;49173;43.164;27.786;2023-04-22T02:01:10;100199.69;;;10.03;75.66
63088;BME280;49173;43.164;27.786;2023-04-22T02:03:37;100195.50;;;9.97;74.64
63088;BME280;49173;43.164;27.786;2023-04-22T02:06:03;100200.16;;;9.94;74.96
63088;BME280;49173;43.164;27.786;2023-04-22T02:08:29;100194.03;;;9.91;75.20
63088;BME280;49173;43.164;27.786;2023-04-22T02:10:55;100211.41;;;9.84;75.69
63088;BME280;49173;43.164;27.786;2023-04-22T02:13:22;100201.88;;;9.79;76.61
63088;BME280;49173;43.164;27.786;2023-04-22T02:15:48;100209.38;;;9.72;77.73
63088;BME280;49173;43.164;27.786;2023-04-22T02:18:14;100206.69;;;9.72;77.94
63088;BME280;49173;43.164;27.786;2023-04-22T02:20:43;100208.44;;;9.73;78.10
63088;BME280;49173;43.164;27.786;2023-04-22T02:23:09;100215.84;;;9.68;78.95
63088;BME280;49173;43.164;27.786;2023-04-22T02:25:36;100205.28;;;9.65;78.83
63088;BME280;49173;43.164;27.786;2023-04-22T02:28:02;100214.38;;;9.62;79.07
63088;BME280;49173;43.164;27.786;2023-04-22T02:30:28;100216.69;;;9.53;78.79
63088;BME280;49173;43.164;27.786;2023-04-22T02:32:53;100218.09;;;9.43;79.76
63088;BME280;49173;43.164;27.786;2023-04-22T02:35:20;100216.47;;;9.40;79.90
63088;BME280;49173;43.164;27.786;2023-04-22T02:37:46;100216.59;;;9.37;80.01
63088;BME280;49173;43.164;27.786;2023-04-22T02:40:12;100216.78;;;9.34;81.06
63088;BME280;49173;43.164;27.786;2023-04-22T02:42:38;100219.69;;;9.29;81.24
63088;BME280;49173;43.164;27.786;2023-04-22T02:45:04;100212.84;;;9.24;81.58
63088;BME280;49173;43.164;27.786;2023-04-22T02:47:30;100206.69;;;9.22;81.53
63088;BME280;49173;43.164;27.786;2023-04-22T02:49:56;100217.66;;;9.17;81.61
63088;BME280;49173;43.164;27.786;2023-04-22T02:52:22;100212.69;;;9.10;81.45
63088;BME280;49173;43.164;27.786;2023-04-22T02:54:47;100223.47;;;9.08;81.39
63088;BME280;49173;43.164;27.786;2023-04-22T02:57:13;100214.56;;;9.07;80.55
63088;BME280;49173;43.164;27.786;2023-04-22T02:59:39;100214.66;;;9.06;80.64
63088;BME280;49173;43.164;27.786;2023-04-22T03:02:04;100219.31;;;9.02;80.52
63088;BME280;49173;43.164;27.786;2023-04-22T03:04:30;100218.38;;;9.03;80.51
63088;BME280;49173;43.164;27.786;2023-04-22T03:06:58;100218.50;;;9.00;80.52
63088;BME280;49173;43.164;27.786;2023-04-22T03:09:24;100214.31;;;8.95;80.59
63088;BME280;49173;43.164;27.786;2023-04-22T03:11:50;100227.78;;;8.93;80.41
63088;BME280;49173;43.164;27.786;2023-04-22T03:14:15;100219.94;;;8.90;80.68
63088;BME280;49173;43.164;27.786;2023-04-22T03:16:41;100223.56;;;8.89;80.97
63088;BME280;49173;43.164;27.786;2023-04-22T03:19:07;100224.34;;;8.91;80.59
63088;BME280;49173;43.164;27.786;2023-04-22T03:21:32;100228.97;;;8.88;80.62
63088;BME280;49173;43.164;27.786;2023-04-22T03:23:58;100233.31;;;8.90;80.58
63088;BME280;49173;43.164;27.786;2023-04-22T03:26:24;100225.13;;;8.93;80.30
63088;BME280;49173;43.164;27.786;2023-04-22T03:28:50;100226.94;;;8.93;79.94
63088;BME280;49173;43.164;27.786;2023-04-22T03:31:15;100232.28;;;8.93;80.09
63088;BME280;49173;43.164;27.786;2023-04-22T03:33:41;100234.75;;;8.97;80.31
63088;BME280;49173;43.164;27.786;2023-04-22T03:36:07;100232.91;;;8.98;80.10
63088;BME280;49173;43.164;27.786;2023-04-22T03:38:33;100241.72;;;9.00;80.00
63088;BME280;49173;43.164;27.786;2023-04-22T03:40:58;100234.44;;;9.03;79.73
63088;BME280;49173;43.164;27.786;2023-04-22T03:43:24;100233.09;;;9.12;79.87
63088;BME280;49173;43.164;27.786;2023-04-22T03:45:50;100235.44;;;9.18;79.76
63088;BME280;49173;43.164;27.786;2023-04-22T03:48:16;100234.84;;;9.30;79.25
63088;BME280;49173;43.164;27.786;2023-04-22T03:50:41;100247.47;;;9.44;79.14
63088;BME280;49173;43.164;27.786;2023-04-22T03:53:07;100245.13;;;9.55;78.64
63088;BME280;49173;43.164;27.786;2023-04-22T03:55:33;100252.25;;;9.72;78.75
63088;BME280;49173;43.164;27.786;2023-04-22T03:57:59;100265.44;;;9.93;77.92
63088;BME280;49173;43.164;27.786;2023-04-22T04:00:25;100276.81;;;10.13;77.46
63088;BME280;49173;43.164;27.786;2023-04-22T04:02:51;100268.50;;;10.35;76.46
63088;BME280;49173;43.164;27.786;2023-04-22T04:05:17;100278.03;;;10.57;76.10
63088;BME280;49173;43.164;27.786;2023-04-22T04:07:43;100285.91;;;10.76;75.50
63088;BME280;49173;43.164;27.786;2023-04-22T04:10:09;100284.88;;;10.94;74.68
63088;BME280;49173;43.164;27.786;2023-04-22T04:12:35;100281.19;;;11.11;74.80
63088;BME280;49173;43.164;27.786;2023-04-22T04:15:01;100274.88;;;11.42;73.63
63088;BME280;49173;43.164;27.786;2023-04-22T04:17:27;100288.53;;;12.12;71.64
63088;BME280;49173;43.164;27.786;2023-04-22T04:19:53;100286.19;;;12.89;70.23
63088;BME280;49173;43.164;27.786;2023-04-22T04:22:20;100293.69;;;13.65;67.59
63088;BME280;49173;43.164;27.786;2023-04-22T04:24:46;100288.00;;;14.08;66.46
63088;BME280;49173;43.164;27.786;2023-04-22T04:27:12;100288.84;;;14.34;65.26
63088;BME280;49173;43.164;27.786;2023-04-22T04:29:39;100295.41;;;14.68;63.66
63088;BME280;49173;43.164;27.786;2023-04-22T04:32:06;100304.88;;;15.10;62.04
63088;BME280;49173;43.164;27.786;2023-04-22T04:34:33;100300.38;;;15.46;60.41
63088;BME280;49173;43.164;27.786;2023-04-22T04:36:59;100300.25;;;15.83;58.67
63088;BME280;49173;43.164;27.786;2023-04-22T04:39:25;100299.59;;;16.14;58.03
63088;BME280;49173;43.164;27.786;2023-04-22T04:41:54;100304.41;;;16.33;56.80
63088;BME280;49173;43.164;27.786;2023-04-22T04:44:23;100308.34;;;16.52;56.49
63088;BME280;49173;43.164;27.786;2023-04-22T04:46:51;100317.09;;;16.66;55.78
63088;BME280;49173;43.164;27.786;2023-04-22T04:49:19;100319.47;;;16.71;56.38
63088;BME280;49173;43.164;27.786;2023-04-22T04:51:45;100317.72;;;16.70;55.37
63088;BME280;49173;43.164;27.786;2023-04-22T04:54:11;100325.47;;;16.63;56.04
63088;BME280;49173;43.164;27.786;2023-04-22T04:56:36;100328.16;;;16.52;56.49
63088;BME280;49173;43.164;27.786;2023-04-22T04:59:02;100329.66;;;16.45;57.44
63088;BME280;49173;43.164;27.786;2023-04-22T05:01:28;100332.72;;;16.40;57.62
63088;BME280;49173;43.164;27.786;2023-04-22T05:03:53;100345.78;;;16.35;58.13
63088;BME280;49173;43.164;27.786;2023-04-22T05:06:19;100344.78;;;16.25;58.72
63088;BME280;49173;43.164;27.786;2023-04-22T05:08:45;100338.97;;;16.18;59.18
63088;BME280;49173;43.164;27.786;2023-04-22T05:11:10;100343.50;;;16.07;59.56
63088;BME280;49173;43.164;27.786;2023-04-22T05:13:36;100344.47;;;15.95;60.01
63088;BME280;49173;43.164;27.786;2023-04-22T05:16:02;100333.88;;;15.91;60.92
63088;BME280;49173;43.164;27.786;2023-04-22T05:18:28;100341.38;;;15.99;60.94
63088;BME280;49173;43.164;27.786;2023-04-22T05:20:53;100340.78;;;16.07;59.31
63088;BME280;49173;43.164;27.786;2023-04-22T05:23:19;100346.38;;;16.16;59.23
63088;BME280;49173;43.164;27.786;2023-04-22T05:25:45;100346.38;;;16.28;60.02
63088;BME280;49173;43.164;27.786;2023-04-22T05:28:12;100352.66;;;16.39;59.30
63088;BME280;49173;43.164;27.786;2023-04-22T05:30:37;100346.28;;;16.52;59.24
63088;BME280;49173;43.164;27.786;2023-04-22T05:33:06;100346.16;;;16.64;58.69
63088;BME280;49173;43.164;27.786;2023-04-22T05:35:33;100354.56;;;16.72;58.36
63088;BME280;49173;43.164;27.786;2023-04-22T05:38:00;100351.22;;;16.80;56.27
63088;BME280;49173;43.164;27.786;2023-04-22T05:40:27;100345.91;;;16.90;57.60
63088;BME280;49173;43.164;27.786;2023-04-22T05:42:53;100354.28;;;16.98;57.37
63088;BME280;49173;43.164;27.786;2023-04-22T05:45:19;100362.66;;;17.06;56.84
63088;BME280;49173;43.164;27.786;2023-04-22T05:47:44;100358.69;;;17.10;55.99
63088;BME280;49173;43.164;27.786;2023-04-22T05:50:10;100363.34;;;17.19;54.68
63088;BME280;49173;43.164;27.786;2023-04-22T05:52:36;100368.41;;;17.24;53.75
63088;BME280;49173;43.164;27.786;2023-04-22T05:55:02;100370.47;;;17.32;53.81
63088;BME280;49173;43.164;27.786;2023-04-22T05:57:27;100380.69;;;17.39;53.20
63088;BME280;49173;43.164;27.786;2023-04-22T05:59:53;100370.19;;;17.46;53.20
63088;BME280;49173;43.164;27.786;2023-04-22T06:02:19;100373.41;;;17.51;53.07
63088;BME280;49173;43.164;27.786;2023-04-22T06:04:44;100371.88;;;17.58;53.19
63088;BME280;49173;43.164;27.786;2023-04-22T06:07:10;100372.38;;;17.63;51.71
63088;BME280;49173;43.164;27.786;2023-04-22T06:09:36;100374.94;;;17.65;52.20
63088;BME280;49173;43.164;27.786;2023-04-22T06:12:01;100386.19;;;17.71;51.36
63088;BME280;49173;43.164;27.786;2023-04-22T06:14:27;100375.66;;;17.78;51.19
63088;BME280;49173;43.164;27.786;2023-04-22T06:16:53;100379.72;;;17.83;52.22
63088;BME280;49173;43.164;27.786;2023-04-22T06:19:18;100380.06;;;17.90;52.24
63088;BME280;49173;43.164;27.786;2023-04-22T06:21:44;100385.22;;;17.93;50.67
63088;BME280;49173;43.164;27.786;2023-04-22T06:24:10;100389.09;;;17.79;49.81
63088;BME280;49173;43.164;27.786;2023-04-22T06:26:36;100393.75;;;17.45;47.88
63088;BME280;49173;43.164;27.786;2023-04-22T06:29:02;100390.38;;;17.21;48.78
63088;BME280;49173;43.164;27.786;2023-04-22T06:31:30;100395.09;;;16.74;48.36
63088;BME280;49173;43.164;27.786;2023-04-22T06:33:57;100397.38;;;16.45;49.48
63088;BME280;49173;43.164;27.786;2023-04-22T06:36:24;100404.69;;;16.20;49.88
63088;BME280;49173;43.164;27.786;2023-04-22T06:38:50;100413.16;;;16.05;50.78
63088;BME280;49173;43.164;27.786;2023-04-22T06:41:16;100411.34;;;15.81;51.07
63088;BME280;49173;43.164;27.786;2023-04-22T06:43:43;100414.25;;;15.54;51.01
63088;BME280;49173;43.164;27.786;2023-04-22T06:46:09;100426.28;;;15.50;53.02
63088;BME280;49173;43.164;27.786;2023-04-22T06:48:36;100421.78;;;15.38;52.43
63088;BME280;49173;43.164;27.786;2023-04-22T06:51:02;100426.44;;;15.36;53.37
63088;BME280;49173;43.164;27.786;2023-04-22T06:53:28;100421.41;;;15.19;52.65
63088;BME280;49173;43.164;27.786;2023-04-22T06:55:53;100429.53;;;15.19;53.97
63088;BME280;49173;43.164;27.786;2023-04-22T06:58:20;100431.84;;;15.36;52.33
63088;BME280;49173;43.164;27.786;2023-04-22T07:00:46;100425.00;;;15.43;52.09
63088;BME280;49173;43.164;27.786;2023-04-22T07:03:13;100424.19;;;15.67;53.81
63088;BME280;49173;43.164;27.786;2023-04-22T07:05:39;100430.72;;;15.99;54.74
63088;BME280;49173;43.164;27.786;2023-04-22T07:08:05;100424.81;;;16.29;52.77
63088;BME280;49173;43.164;27.786;2023-04-22T07:10:30;100425.44;;;16.55;51.80
63088;BME280;49173;43.164;27.786;2023-04-22T07:12:56;100422.44;;;16.82;51.72
63088;BME280;49173;43.164;27.786;2023-04-22T07:15:22;100420.84;;;17.02;50.52
63088;BME280;49173;43.164;27.786;2023-04-22T07:17:48;100424.41;;;17.14;49.99
63088;BME280;49173;43.164;27.786;2023-04-22T07:20:13;100426.50;;;17.21;49.34
63088;BME280;49173;43.164;27.786;2023-04-22T07:22:39;100428.72;;;17.16;49.49
63088;BME280;49173;43.164;27.786;2023-04-22T07:25:05;100432.53;;;17.14;49.07
63088;BME280;49173;43.164;27.786;2023-04-22T07:27:33;100430.06;;;17.22;50.63
63088;BME280;49173;43.164;27.786;2023-04-22T07:29:59;100434.22;;;17.26;48.97
63088;BME280;49173;43.164;27.786;2023-04-22T07:32:25;100434.50;;;17.34;49.36
63088;BME280;49173;43.164;27.786;2023-04-22T07:34:51;100442.88;;;17.31;48.98
63088;BME280;49173;43.164;27.786;2023-04-22T07:37:17;100428.72;;;17.16;48.89
63088;BME280;49173;43.164;27.786;2023-04-22T07:39:43;100435.25;;;17.02;48.34
63088;BME280;49173;43.164;27.786;2023-04-22T07:42:09;100436.13;;;16.92;49.54
63088;BME280;49173;43.164;27.786;2023-04-22T07:44:34;100433.91;;;16.86;49.25
63088;BME280;49173;43.164;27.786;2023-04-22T07:47:00;100445.25;;;16.80;49.19
63088;BME280;49173;43.164;27.786;2023-04-22T07:49:26;100435.69;;;16.63;48.61
63088;BME280;49173;43.164;27.786;2023-04-22T07:51:52;100434.31;;;16.46;48.63
63088;BME280;49173;43.164;27.786;2023-04-22T07:54:17;100442.91;;;16.40;48.65
63088;BME280;49173;43.164;27.786;2023-04-22T07:56:43;100448.31;;;16.29;49.65
63088;BME280;49173;43.164;27.786;2023-04-22T07:59:09;100452.38;;;16.23;49.29
63088;BME280;49173;43.164;27.786;2023-04-22T08:01:35;100447.06;;;16.22;48.91
63088;BME280;49173;43.164;27.786;2023-04-22T08:04:00;100448.16;;;16.19;49.63
63088;BME280;49173;43.164;27.786;2023-04-22T08:06:26;100451.03;;;16.29;50.68
63088;BME280;49173;43.164;27.786;2023-04-22T08:08:52;100452.28;;;16.36;50.21
63088;BME280;49173;43.164;27.786;2023-04-22T08:11:18;100442.66;;;16.32;49.83
63088;BME280;49173;43.164;27.786;2023-04-22T08:13:44;100439.34;;;16.39;50.10
63088;BME280;49173;43.164;27.786;2023-04-22T08:16:10;100444.63;;;16.41;48.54
63088;BME280;49173;43.164;27.786;2023-04-22T08:18:36;100444.75;;;16.39;49.82
63088;BME280;49173;43.164;27.786;2023-04-22T08:21:01;100439.81;;;16.33;49.93
63088;BME280;49173;43.164;27.786;2023-04-22T08:23:27;100431.94;;;16.41;49.82
63088;BME280;49173;43.164;27.786;2023-04-22T08:25:53;100441.09;;;16.52;51.69
63088;BME280;49173;43.164;27.786;2023-04-22T08:28:19;100439.38;;;16.51;50.50
63088;BME280;49173;43.164;27.786;2023-04-22T08:30:45;100433.97;;;16.51;50.25
63088;BME280;49173;43.164;27.786;2023-04-22T08:33:11;100429.16;;;16.54;50.87
63088;BME280;49173;43.164;27.786;2023-04-22T08:35:37;100436.56;;;16.63;50.36
63088;BME280;49173;43.164;27.786;2023-04-22T08:38:03;100428.13;;;16.79;51.73
63088;BME280;49173;43.164;27.786;2023-04-22T08:40:29;100424.53;;;16.90;50.52
63088;BME280;49173;43.164;27.786;2023-04-22T08:42:55;100423.31;;;16.94;49.57
63088;BME280;49173;43.164;27.786;2023-04-22T08:45:40;100424.28;;;17.04;51.52
63088;BME280;49173;43.164;27.786;2023-04-22T08:48:08;100418.97;;;17.14;51.60
63088;BME280;49173;43.164;27.786;2023-04-22T08:50:36;100416.38;;;17.23;50.29
63088;BME280;49173;43.164;27.786;2023-04-22T08:53:03;100408.22;;;17.23;48.18
63088;BME280;49173;43.164;27.786;2023-04-22T08:55:30;100413.06;;;17.20;47.19
63088;BME280;49173;43.164;27.786;2023-04-22T08:57:59;100414.78;;;17.21;48.70
63088;BME280;49173;43.164;27.786;2023-04-22T09:00:25;100421.78;;;17.35;49.49
63088;BME280;49173;43.164;27.786;2023-04-22T09:02:52;100420.16;;;17.32;48.21
63088;BME280;49173;43.164;27.786;2023-04-22T09:05:19;100420.16;;;17.32;48.20
63088;BME280;49173;43.164;27.786;2023-04-22T09:07:47;100418.59;;;17.29;48.37
63088;BME280;49173;43.164;27.786;2023-04-22T09:10:13;100423.25;;;17.39;48.92
63088;BME280;49173;43.164;27.786;2023-04-22T09:12:40;100421.31;;;17.29;46.11
63088;BME280;49173;43.164;27.786;2023-04-22T09:15:06;100417.00;;;17.16;45.18
63088;BME280;49173;43.164;27.786;2023-04-22T09:17:34;100416.78;;;17.08;45.80
63088;BME280;49173;43.164;27.786;2023-04-22T09:20:05;100414.16;;;17.17;48.57
63088;BME280;49173;43.164;27.786;2023-04-22T09:22:46;100415.25;;;17.26;45.54
63088;BME280;49173;43.164;27.786;2023-04-22T09:25:24;100421.03;;;17.33;49.23
63088;BME280;49173;43.164;27.786;2023-04-22T09:27:52;100411.44;;;17.28;46.70
63088;BME280;49173;43.164;27.786;2023-04-22T09:30:26;100408.81;;;17.38;47.65
63088;BME280;49173;43.164;27.786;2023-04-22T09:33:00;100406.25;;;17.25;45.94
63088;BME280;49173;43.164;27.786;2023-04-22T09:35:28;100408.97;;;17.37;47.65
63088;BME280;49173;43.164;27.786;2023-04-22T09:37:55;100408.94;;;17.48;49.40
63088;BME280;49173;43.164;27.786;2023-04-22T09:40:22;100417.53;;;17.64;49.69
63088;BME280;49173;43.164;27.786;2023-04-22T09:42:49;100408.25;;;17.78;49.83
63088;BME280;49173;43.164;27.786;2023-04-22T09:45:35;100413.38;;;17.92;48.63
63088;BME280;49173;43.164;27.786;2023-04-22T09:48:07;100414.09;;;17.94;46.24
63088;BME280;49173;43.164;27.786;2023-04-22T09:50:35;100402.06;;;17.76;43.79
63088;BME280;49173;43.164;27.786;2023-04-22T09:53:06;100408.09;;;17.68;47.86
63088;BME280;49173;43.164;27.786;2023-04-22T09:55:35;100410.03;;;17.89;48.84
63088;BME280;49173;43.164;27.786;2023-04-22T09:58:09;100413.25;;;17.94;45.60
63088;BME280;49173;43.164;27.786;2023-04-22T10:00:40;100415.13;;;17.82;45.27
63088;BME280;49173;43.164;27.786;2023-04-22T10:03:07;100407.72;;;17.84;46.99
63088;BME280;49173;43.164;27.786;2023-04-22T10:05:33;100414.03;;;17.84;47.13
63088;BME280;49173;43.164;27.786;2023-04-22T10:08:06;100408.88;;;17.70;45.00
63088;BME280;49173;43.164;27.786;2023-04-22T10:10:33;100409.84;;;17.80;46.45
63088;BME280;49173;43.164;27.786;2023-04-22T10:13:00;100405.72;;;17.97;47.29
63088;BME280;49173;43.164;27.786;2023-04-22T10:15:40;100395.63;;;18.09;46.77
63088;BME280;49173;43.164;27.786;2023-04-22T10:18:09;100402.97;;;18.18;46.07
63088;BME280;49173;43.164;27.786;2023-04-22T10:20:39;100397.34;;;18.10;45.47
63088;BME280;49173;43.164;27.786;2023-04-22T10:23:12;100412.72;;;18.00;43.68
63088;BME280;49173;43.164;27.786;2023-04-22T10:25:38;100413.25;;;17.94;43.39
63088;BME280;49173;43.164;27.786;2023-04-22T10:28:06;100399.66;;;17.94;46.19
63088;BME280;49173;43.164;27.786;2023-04-22T10:30:35;100395.28;;;18.02;44.26
63088;BME280;49173;43.164;27.786;2023-04-22T10:33:37;100399.47;;;18.06;44.02
63088;BME280;49173;43.164;27.786;2023-04-22T10:36:14;100405.06;;;18.05;44.15
63088;BME280;49173;43.164;27.786;2023-04-22T10:41:23;100388.53;;;18.38;46.37
63088;BME280;49173;43.164;27.786;2023-04-22T10:43:57;100401.66;;;18.54;44.60
63088;BME280;49173;43.164;27.786;2023-04-22T10:48:56;100397.88;;;18.46;44.84
63088;BME280;49173;43.164;27.786;2023-04-22T10:51:48;100387.63;;;18.59;43.79
63088;BME280;49173;43.164;27.786;2023-04-22T10:59:32;100390.31;;;18.70;43.41
63088;BME280;49173;43.164;27.786;2023-04-22T11:04:27;100383.34;;;18.77;44.34
63088;BME280;49173;43.164;27.786;2023-04-22T11:09:49;100385.34;;;18.75;42.69
63088;BME280;49173;43.164;27.786;2023-04-22T11:15:16;100383.03;;;18.50;44.16
63088;BME280;49173;43.164;27.786;2023-04-22T11:17:45;100380.84;;;18.44;43.86
63088;BME280;49173;43.164;27.786;2023-04-22T11:20:12;100394.03;;;18.48;45.25
63088;BME280;49173;43.164;27.786;2023-04-22T11:22:41;100393.69;;;18.62;44.13
63088;BME280;49173;43.164;27.786;2023-04-22T11:25:07;100394.69;;;18.82;43.98
63088;BME280;49173;43.164;27.786;2023-04-22T11:27:35;100394.03;;;18.69;42.37
63088;BME280;49173;43.164;27.786;2023-04-22T11:30:09;100392.31;;;18.68;43.14
63088;BME280;49173;43.164;27.786;2023-04-22T11:32:39;100380.88;;;18.74;43.18
63088;BME280;49173;43.164;27.786;2023-04-22T11:35:06;100391.28;;;18.90;45.55
63088;BME280;49173;43.164;27.786;2023-04-22T11:40:35;100388.59;;;19.09;44.02
63088;BME280;49173;43.164;27.786;2023-04-22T11:43:03;100401.38;;;19.18;42.68
63088;BME280;49173;43.164;27.786;2023-04-22T11:45:31;100396.91;;;19.08;41.37
63088;BME280;49173;43.164;27.786;2023-04-22T11:47:58;100391.84;;;18.93;42.92
63088;BME280;49173;43.164;27.786;2023-04-22T11:50:26;100389.13;;;18.93;42.48
63088;BME280;49173;43.164;27.786;2023-04-22T11:55:26;100386.63;;;19.21;43.40
63088;BME280;49173;43.164;27.786;2023-04-22T11:58:05;100389.88;;;19.05;41.31
63088;BME280;49173;43.164;27.786;2023-04-22T12:00:34;100379.88;;;19.06;42.04
63088;BME280;49173;43.164;27.786;2023-04-22T12:03:22;100383.34;;;19.17;43.51
63088;BME280;49173;43.164;27.786;2023-04-22T12:05:56;100379.50;;;19.30;43.29
63088;BME280;49173;43.164;27.786;2023-04-22T12:08:40;100375.41;;;19.55;40.76
63088;BME280;49173;43.164;27.786;2023-04-22T12:11:09;100375.56;;;19.72;41.96
63088;BME280;49173;43.164;27.786;2023-04-22T12:16:03;100375.59;;;19.82;41.40
63088;BME280;49173;43.164;27.786;2023-04-22T12:18:31;100371.56;;;19.86;41.84
63088;BME280;49173;43.164;27.786;2023-04-22T12:23:29;100381.31;;;19.69;42.64
63088;BME280;49173;43.164;27.786;2023-04-22T12:25:56;100378.13;;;19.93;42.50
63088;BME280;49173;43.164;27.786;2023-04-22T12:28:22;100368.56;;;20.09;43.10
63088;BME280;49173;43.164;27.786;2023-04-22T12:30:47;100374.41;;;20.23;40.94
63088;BME280;49173;43.164;27.786;2023-04-22T12:33:13;100380.69;;;20.34;40.78
63088;BME280;49173;43.164;27.786;2023-04-22T12:35:39;100382.16;;;19.99;41.53
63088;BME280;49173;43.164;27.786;2023-04-22T12:38:05;100377.56;;;19.70;42.19
63088;BME280;49173;43.164;27.786;2023-04-22T12:40:31;100380.53;;;19.38;41.95
63088;BME280;49173;43.164;27.786;2023-04-22T12:42:58;100386.94;;;19.37;43.02
63088;BME280;49173;43.164;27.786;2023-04-22T12:45:25;100386.94;;;19.37;42.64
63088;BME280;49173;43.164;27.786;2023-04-22T12:47:51;100382.50;;;19.36;41.91
63088;BME280;49173;43.164;27.786;2023-04-22T12:50:19;100396.66;;;19.20;45.15
63088;BME280;49173;43.164;27.786;2023-04-22T12:52:45;100395.28;;;18.96;46.73
63088;BME280;49173;43.164;27.786;2023-04-22T12:55:12;100386.94;;;18.57;47.13
63088;BME280;49173;43.164;27.786;2023-04-22T12:57:38;100387.28;;;18.22;49.43
63088;BME280;49173;43.164;27.786;2023-04-22T13:00:05;100389.28;;;17.99;50.89
63088;BME280;49173;43.164;27.786;2023-04-22T13:02:39;100379.44;;;17.87;51.84
63088;BME280;49173;43.164;27.786;2023-04-22T13:05:05;100396.34;;;17.47;53.48
63088;BME280;49173;43.164;27.786;2023-04-22T13:07:32;100386.41;;;17.25;54.19
63088;BME280;49173;43.164;27.786;2023-04-22T13:09:57;100391.22;;;17.21;54.53